createdAt,value
2023-02-06T00:00:47.952Z,103431.81
2023-02-06T00:03:14.315Z,103432.75
2023-02-06T00:05:40.933Z,103428.34
2023-02-06T00:08:07.731Z,103437.16
2023-02-06T00:10:34.229Z,103439.03
2023-02-06T00:13:00.949Z,103435.44
2023-02-06T00:15:27.296Z,103431.94
2023-02-06T00:17:53.687Z,103426.66
2023-02-06T00:20:20.247Z,103424.00
2023-02-06T00:22:46.611Z,103425.81
2023-02-06T00:25:12.942Z,103424.09
2023-02-06T00:27:39.493Z,103415.25
2023-02-06T00:30:06.365Z,103409.97
2023-02-06T00:32:34.637Z,103405.53
2023-02-06T00:35:01.195Z,103404.72
2023-02-06T00:37:27.552Z,103398.53
2023-02-06T00:39:53.893Z,103404.78
2023-02-06T00:42:20.708Z,103403.03
2023-02-06T00:44:47.233Z,103392.44
2023-02-06T00:47:13.557Z,103394.28
2023-02-06T00:49:39.916Z,103395.22
2023-02-06T00:52:06.393Z,103394.34
2023-02-06T00:54:32.790Z,103394.38
2023-02-06T00:56:59.117Z,103406.81
2023-02-06T00:59:25.490Z,103403.28
2023-02-06T01:01:51.850Z,103403.31
2023-02-06T01:04:18.276Z,103413.09
2023-02-06T01:06:44.633Z,103406.91
2023-02-06T01:09:11.049Z,103417.53
2023-02-06T01:11:37.549Z,103415.78
2023-02-06T01:14:04.085Z,103417.53
2023-02-06T01:16:30.454Z,103414.88
2023-02-06T01:18:56.834Z,103414.88
2023-02-06T01:21:25.164Z,103408.63
2023-02-06T01:23:53.808Z,103419.22
2023-02-06T01:26:23.120Z,103411.25
2023-02-06T01:28:50.086Z,103413.91
2023-02-06T01:31:24.377Z,103408.53
2023-02-06T01:33:51.756Z,103410.28
2023-02-06T01:36:19.937Z,103411.19
2023-02-06T01:38:47.434Z,103407.63
2023-02-06T01:41:16.651Z,103414.75
2023-02-06T01:43:46.548Z,103408.53
2023-02-06T01:46:13.227Z,103413.00
2023-02-06T01:48:42.899Z,103417.44
2023-02-06T01:51:15.047Z,103420.09
2023-02-06T01:53:43.744Z,103403.31
2023-02-06T01:56:11.312Z,103400.66
2023-02-06T01:58:43.100Z,103390.03
2023-02-06T02:01:10.021Z,103397.16
2023-02-06T02:03:39.609Z,103400.66
2023-02-06T02:06:08.760Z,103408.63
2023-02-06T02:08:41.050Z,103413.91
2023-02-06T02:11:09.284Z,103413.94
2023-02-06T02:13:38.169Z,103417.44
2023-02-06T02:16:18.122Z,103427.13
2023-02-06T02:18:54.980Z,103407.75
2023-02-06T02:22:03.490Z,103397.97
2023-02-06T02:25:05.156Z,103399.81
2023-02-06T02:28:09.204Z,103401.59
2023-02-06T02:31:13.232Z,103405.16
2023-02-06T02:34:07.642Z,103393.72
2023-02-06T02:36:49.100Z,103390.19
2023-02-06T02:39:29.198Z,103384.94
2023-02-06T02:42:08.551Z,103382.28
2023-02-06T02:44:50.376Z,103385.91
2023-02-06T02:47:21.012Z,103394.75
2023-02-06T02:49:48.396Z,103385.94
2023-02-06T02:52:15.996Z,103398.44
2023-02-06T02:54:42.609Z,103402.91
2023-02-06T02:57:16.135Z,103414.53
2023-02-06T02:59:46.350Z,103415.63
2023-02-06T03:02:18.827Z,103415.00
2023-02-06T03:04:51.167Z,103425.00
2023-02-06T03:07:32.772Z,103415.56
2023-02-06T03:10:11.765Z,103407.81
2023-02-06T03:12:45.042Z,103408.97
2023-02-06T03:15:26.860Z,103400.34
2023-02-06T03:18:02.478Z,103404.91
2023-02-06T03:20:30.218Z,103404.09
2023-02-06T03:22:58.328Z,103402.50
2023-02-06T03:25:37.059Z,103409.78
2023-02-06T03:28:08.037Z,103406.38
2023-02-06T03:30:35.180Z,103417.16
2023-02-06T03:33:06.053Z,103428.72
2023-02-06T03:35:36.077Z,103419.06
2023-02-06T03:38:04.956Z,103417.31
2023-02-06T03:40:31.705Z,103418.09
2023-02-06T03:43:02.685Z,103416.28
2023-02-06T03:45:44.125Z,103406.47
2023-02-06T03:48:17.237Z,103410.78
2023-02-06T03:50:45.639Z,103404.47
2023-02-06T03:53:14.481Z,103407.88
2023-02-06T03:55:43.192Z,103413.00
2023-02-06T03:58:13.889Z,103418.13
2023-02-06T04:00:43.316Z,103427.75
2023-02-06T04:03:11.021Z,103428.47
2023-02-06T04:05:37.965Z,103423.94
2023-02-06T04:08:04.860Z,103427.34
2023-02-06T04:10:31.326Z,103429.03
2023-02-06T04:12:57.781Z,103429.00
2023-02-06T04:15:24.209Z,103425.41
2023-02-06T04:18:00.063Z,103429.84
2023-02-06T04:20:27.675Z,103437.00
2023-02-06T04:22:54.060Z,103430.00
2023-02-06T04:25:20.476Z,103428.38
2023-02-06T04:27:46.921Z,103420.53
2023-02-06T04:30:13.663Z,103425.94
2023-02-06T04:32:40.004Z,103441.09
2023-02-06T04:35:06.548Z,103444.75
2023-02-06T04:37:33.205Z,103449.28
2023-02-06T04:39:59.608Z,103446.66
2023-02-06T04:42:26.035Z,103436.03
2023-02-06T04:44:52.450Z,103429.88
2023-02-06T04:47:18.878Z,103429.84
2023-02-06T04:49:45.224Z,103416.56
2023-02-06T04:52:11.581Z,103420.09
2023-02-06T04:54:38.076Z,103425.34
2023-02-06T04:57:04.415Z,103422.63
2023-02-06T04:59:30.908Z,103427.88
2023-02-06T05:01:57.277Z,103428.63
2023-02-06T05:04:23.640Z,103435.59
2023-02-06T05:06:50.163Z,103431.06
2023-02-06T05:09:16.488Z,103430.06
2023-02-06T05:11:42.850Z,103420.22
2023-02-06T05:14:09.347Z,103417.41
2023-02-06T05:16:35.745Z,103409.28
2023-02-06T05:19:02.101Z,103413.66
2023-02-06T05:21:28.735Z,103413.56
2023-02-06T05:23:55.340Z,103421.44
2023-02-06T05:26:21.824Z,103420.47
2023-02-06T05:28:48.279Z,103407.13
2023-02-06T05:31:19.585Z,103405.31
2023-02-06T05:33:51.150Z,103398.09
2023-02-06T05:36:19.168Z,103395.41
2023-02-06T05:38:45.790Z,103394.47
2023-02-06T05:41:12.247Z,103391.72
2023-02-06T05:43:38.675Z,103376.69
2023-02-06T05:46:05.254Z,103391.69
2023-02-06T05:48:34.353Z,103399.66
2023-02-06T05:51:01.626Z,103405.84
2023-02-06T05:53:28.058Z,103406.66
2023-02-06T05:55:54.557Z,103412.91
2023-02-06T05:58:20.919Z,103404.00
2023-02-06T06:00:47.295Z,103398.69
2023-02-06T06:03:13.694Z,103402.28
2023-02-06T06:05:40.176Z,103410.25
2023-02-06T06:08:06.803Z,103400.53
2023-02-06T06:10:33.224Z,103395.22
2023-02-06T06:12:59.838Z,103397.00
2023-02-06T06:15:26.283Z,103404.13
2023-02-06T06:17:52.808Z,103390.84
2023-02-06T06:20:19.197Z,103397.00
2023-02-06T06:22:45.537Z,103396.09
2023-02-06T06:25:12.077Z,103404.03
2023-02-06T06:27:39.235Z,103407.59
2023-02-06T06:30:06.158Z,103408.50
2023-02-06T06:32:32.482Z,103398.75
2023-02-06T06:34:58.819Z,103407.63
2023-02-06T06:37:25.195Z,103404.13
2023-02-06T06:39:51.643Z,103403.25
2023-02-06T06:42:18.029Z,103402.34
2023-02-06T06:44:44.536Z,103400.59
2023-02-06T06:47:10.909Z,103401.50
2023-02-06T06:49:37.344Z,103405.00
2023-02-06T06:52:07.038Z,103397.94
2023-02-06T06:54:35.265Z,103398.81
2023-02-06T06:57:01.601Z,103404.13
2023-02-06T06:59:28.088Z,103397.88
2023-02-06T07:01:54.496Z,103394.31
2023-02-06T07:04:21.123Z,103412.91
2023-02-06T07:06:47.601Z,103401.38
2023-02-06T07:09:14.603Z,103401.34
2023-02-06T07:11:41.390Z,103398.69
2023-02-06T07:14:08.047Z,103400.44
2023-02-06T07:16:34.467Z,103402.19
2023-02-06T07:19:00.862Z,103408.31
2023-02-06T07:21:27.212Z,103417.09
2023-02-06T07:23:53.678Z,103408.16
2023-02-06T07:26:20.169Z,103402.81
2023-02-06T07:28:49.077Z,103408.94
2023-02-06T07:31:16.131Z,103423.03
2023-02-06T07:33:42.472Z,103420.34
2023-02-06T07:36:13.764Z,103412.34
2023-02-06T07:38:40.775Z,103408.75
2023-02-06T07:41:07.891Z,103399.84
2023-02-06T07:43:34.560Z,103398.94
2023-02-06T07:46:02.107Z,103401.50
2023-02-06T07:48:29.068Z,103407.63
2023-02-06T07:50:55.563Z,103404.00
2023-02-06T07:53:22.365Z,103402.13
2023-02-06T07:55:49.074Z,103398.47
2023-02-06T07:58:15.604Z,103393.94
2023-02-06T08:00:42.081Z,103405.28
2023-02-06T08:03:09.601Z,103408.72
2023-02-06T08:05:39.255Z,103402.38
2023-02-06T08:08:07.325Z,103404.88
2023-02-06T08:10:33.719Z,103405.69
2023-02-06T08:13:00.111Z,103410.91
2023-02-06T08:15:26.564Z,103411.66
2023-02-06T08:17:53.143Z,103414.25
2023-02-06T08:20:19.623Z,103411.50
2023-02-06T08:22:46.595Z,103414.13
2023-02-06T08:25:13.022Z,103409.69
2023-02-06T08:27:39.380Z,103421.13
2023-02-06T08:30:06.267Z,103424.66
2023-02-06T08:32:34.303Z,103431.66
2023-02-06T08:35:00.781Z,103428.94
2023-02-06T08:37:27.524Z,103432.38
2023-02-06T08:39:53.880Z,103429.59
2023-02-06T08:42:20.226Z,103423.31
2023-02-06T08:44:46.639Z,103428.50
2023-02-06T08:47:13.426Z,103436.34
2023-02-06T08:49:39.899Z,103437.09
2023-02-06T08:52:06.363Z,103435.22
2023-02-06T08:54:35.496Z,103437.78
2023-02-06T08:57:03.160Z,103435.84
2023-02-06T08:59:30.956Z,103429.56
2023-02-06T09:01:57.351Z,103426.78
2023-02-06T09:04:23.801Z,103427.56
2023-02-06T09:06:51.917Z,103417.72
2023-02-06T09:09:19.005Z,103421.16
2023-02-06T09:11:45.364Z,103426.34
2023-02-06T09:14:17.111Z,103435.16
2023-02-06T09:16:43.679Z,103435.09
2023-02-06T09:19:12.687Z,103431.53
2023-02-06T09:21:39.075Z,103432.31
2023-02-06T09:24:08.045Z,103433.25
2023-02-06T09:26:58.101Z,103438.53
2023-02-06T09:29:25.806Z,103434.94
2023-02-06T09:31:52.273Z,103432.16
2023-02-06T09:34:18.618Z,103440.97
2023-02-06T09:36:45.777Z,103445.28
2023-02-06T09:39:12.226Z,103445.22
2023-02-06T09:41:48.113Z,103438.06
2023-02-06T09:44:24.520Z,103437.94
2023-02-06T09:47:06.394Z,103435.19
2023-02-06T09:49:39.950Z,103421.78
2023-02-06T09:52:19.433Z,103425.22
2023-02-06T09:55:03.584Z,103426.84
2023-02-06T09:57:57.540Z,103437.25
2023-02-06T10:00:32.726Z,103437.03
2023-02-06T10:03:30.325Z,103443.84
2023-02-06T10:06:14.993Z,103441.88
2023-02-06T10:08:53.965Z,103438.19
2023-02-06T10:11:34.889Z,103433.56
2023-02-06T10:14:06.581Z,103424.59
2023-02-06T10:16:43.191Z,103427.13
2023-02-06T10:19:33.790Z,103422.63
2023-02-06T10:22:04.899Z,103418.03
2023-02-06T10:24:46.282Z,103418.88
2023-02-06T10:27:15.002Z,103415.31
2023-02-06T10:29:44.996Z,103405.50
2023-02-06T10:32:26.994Z,103400.19
2023-02-06T10:35:05.740Z,103407.22
2023-02-06T10:37:32.159Z,103401.13
2023-02-06T10:40:22.713Z,103400.19
2023-02-06T10:43:07.407Z,103391.38
2023-02-06T10:45:55.515Z,103384.31
2023-02-06T10:48:32.809Z,103391.38
2023-02-06T10:51:14.747Z,103392.22
2023-02-06T10:53:53.185Z,103394.84
2023-02-06T10:56:27.282Z,103382.34
2023-02-06T10:58:58.728Z,103382.22
2023-02-06T11:01:29.615Z,103376.78
2023-02-06T11:03:58.793Z,103381.13
2023-02-06T11:06:28.096Z,103373.03
2023-02-06T11:08:54.533Z,103378.25
2023-02-06T11:11:23.415Z,103358.50
2023-02-06T11:14:04.277Z,103365.38
2023-02-06T11:16:35.957Z,103371.38
2023-02-06T11:19:16.461Z,103380.00
2023-02-06T11:21:47.583Z,103387.81
2023-02-06T11:24:16.225Z,103384.06
2023-02-06T11:26:46.891Z,103382.16
2023-02-06T11:29:27.021Z,103382.03
2023-02-06T11:31:58.583Z,103374.84
2023-02-06T11:34:38.846Z,103368.56
2023-02-06T11:37:26.525Z,103359.59
2023-02-06T11:39:53.477Z,103353.50
2023-02-06T11:42:22.452Z,103366.84
2023-02-06T11:44:49.137Z,103364.16
2023-02-06T11:47:30.198Z,103364.03
2023-02-06T11:50:36.038Z,103364.75
2023-02-06T11:53:14.797Z,103365.41
2023-02-06T11:56:15.891Z,103364.28
2023-02-06T11:58:42.902Z,103361.41
2023-02-06T12:01:18.750Z,103355.00
2023-02-06T12:03:54.755Z,103352.00
2023-02-06T12:06:30.583Z,103351.72
2023-02-06T12:08:58.616Z,103347.81
2023-02-06T12:11:57.752Z,103353.81
2023-02-06T12:14:40.116Z,103357.25
2023-02-06T12:17:30.931Z,103356.97
2023-02-06T12:20:03.963Z,103354.09
2023-02-06T12:22:36.629Z,103351.28
2023-02-06T12:25:04.786Z,103357.41
2023-02-06T12:27:39.558Z,103347.44
2023-02-06T12:30:08.868Z,103345.47
2023-02-06T12:32:42.862Z,103339.94
2023-02-06T12:35:21.944Z,103354.81
2023-02-06T12:37:55.221Z,103352.78
2023-02-06T12:40:33.722Z,103342.75
2023-02-06T12:43:03.033Z,103348.59
2023-02-06T12:45:52.175Z,103341.06
2023-02-06T12:48:30.736Z,103337.91
2023-02-06T12:51:23.909Z,103333.09
2023-02-06T12:54:30.016Z,103332.56
2023-02-06T12:57:06.712Z,103329.50
2023-02-06T13:00:13.105Z,103328.28
2023-02-06T13:03:17.863Z,103326.06
2023-02-06T13:05:49.041Z,103321.34
2023-02-06T13:08:26.782Z,103322.81
2023-02-06T13:11:05.968Z,103324.31
2023-02-06T13:13:36.690Z,103320.44
2023-02-06T13:16:04.565Z,103322.78
2023-02-06T13:18:50.490Z,103325.94
2023-02-06T13:21:37.897Z,103328.19
2023-02-06T13:24:04.230Z,103318.97
2023-02-06T13:26:46.239Z,103311.41
2023-02-06T13:29:42.413Z,103304.94
2023-02-06T13:32:22.650Z,103311.16
2023-02-06T13:34:48.939Z,103309.44
2023-02-06T13:37:32.483Z,103306.06
2023-02-06T13:40:23.167Z,103303.47
2023-02-06T13:43:00.972Z,103301.72
2023-02-06T13:45:40.449Z,103297.25
2023-02-06T13:48:25.085Z,103301.66
2023-02-06T13:50:59.412Z,103307.00
2023-02-06T13:54:08.008Z,103296.31
2023-02-06T13:56:52.006Z,103282.91
2023-02-06T13:59:24.273Z,103291.91
2023-02-06T14:01:51.544Z,103293.78
2023-02-06T14:04:24.869Z,103291.19
2023-02-06T14:07:07.288Z,103290.44
2023-02-06T14:10:05.203Z,103291.59
2023-02-06T14:12:46.983Z,103289.25
2023-02-06T14:15:21.932Z,103284.25
2023-02-06T14:18:04.344Z,103292.56
2023-02-06T14:20:49.964Z,103290.22
2023-02-06T14:23:45.387Z,103283.22
2023-02-06T14:26:35.133Z,103286.91
2023-02-06T14:29:23.735Z,103283.31
2023-02-06T14:32:02.007Z,103286.84
2023-02-06T14:34:58.980Z,103284.06
2023-02-06T14:38:03.494Z,103284.00
2023-02-06T14:40:36.460Z,103286.69
2023-02-06T14:43:05.912Z,103291.19
2023-02-06T14:45:41.598Z,103288.50
2023-02-06T14:48:19.854Z,103283.31
2023-02-06T14:50:50.730Z,103285.19
2023-02-06T14:53:29.189Z,103279.06
2023-02-06T14:56:23.721Z,103278.38
2023-02-06T14:58:51.283Z,103283.97
2023-02-06T15:01:17.622Z,103269.91
2023-02-06T15:03:45.647Z,103279.03
2023-02-06T15:06:34.708Z,103281.84
2023-02-06T15:09:01.602Z,103274.94
2023-02-06T15:11:33.043Z,103275.09
2023-02-06T15:14:02.499Z,103273.53
2023-02-06T15:16:30.362Z,103274.59
2023-02-06T15:19:11.180Z,103270.38
2023-02-06T15:21:39.757Z,103275.00
2023-02-06T15:24:35.197Z,103269.81
2023-02-06T15:27:27.403Z,103270.91
2023-02-06T15:29:54.649Z,103274.63
2023-02-06T15:32:37.897Z,103264.00
2023-02-06T15:35:30.312Z,103276.66
2023-02-06T15:38:03.692Z,103268.69
2023-02-06T15:40:35.679Z,103271.47
2023-02-06T15:43:03.033Z,103278.69
2023-02-06T15:45:34.372Z,103281.41
2023-02-06T15:48:23.476Z,103271.75
2023-02-06T15:50:55.812Z,103271.91
2023-02-06T15:53:31.485Z,103270.25
2023-02-06T15:55:58.475Z,103272.28
2023-02-06T15:58:26.016Z,103271.56
2023-02-06T16:00:55.482Z,103261.09
2023-02-06T16:03:25.784Z,103270.22
2023-02-06T16:05:52.727Z,103265.16
2023-02-06T16:08:32.034Z,103259.09
2023-02-06T16:11:29.758Z,103250.44
2023-02-06T16:13:57.202Z,103256.94
2023-02-06T16:16:26.118Z,103263.34
2023-02-06T16:18:54.989Z,103268.91
2023-02-06T16:21:30.910Z,103273.63
2023-02-06T16:24:02.567Z,103265.88
2023-02-06T16:26:41.772Z,103275.84
2023-02-06T16:29:08.056Z,103270.81
2023-02-06T16:31:39.661Z,103276.25
2023-02-06T16:34:43.113Z,103274.69
2023-02-06T16:37:13.343Z,103278.41
2023-02-06T16:39:44.332Z,103272.50
2023-02-06T16:42:15.612Z,103274.44
2023-02-06T16:44:45.820Z,103271.19
2023-02-06T16:47:15.350Z,103267.91
2023-02-06T16:49:43.117Z,103258.47
2023-02-06T16:52:18.152Z,103259.59
2023-02-06T16:54:45.664Z,103265.28
2023-02-06T16:57:22.346Z,103261.06
2023-02-06T16:59:48.886Z,103264.97
2023-02-06T17:02:15.622Z,103269.66
2023-02-06T17:04:42.375Z,103270.81
2023-02-06T17:07:18.051Z,103273.75
2023-02-06T17:09:45.277Z,103268.66
2023-02-06T17:12:14.121Z,103275.97
2023-02-06T17:14:42.542Z,103274.38
2023-02-06T17:17:14.226Z,103272.91
2023-02-06T17:19:40.707Z,103274.84
2023-02-06T17:22:09.110Z,103275.13
2023-02-06T17:24:36.417Z,103275.28
2023-02-06T17:27:04.565Z,103283.47
2023-02-06T17:29:34.159Z,103281.06
2023-02-06T17:32:01.823Z,103291.03
2023-02-06T17:34:30.195Z,103277.09
2023-02-06T17:36:56.972Z,103279.94
2023-02-06T17:39:23.612Z,103287.25
2023-02-06T17:41:50.554Z,103294.47
2023-02-06T17:44:18.666Z,103293.81
2023-02-06T17:46:47.012Z,103293.91
2023-02-06T17:49:14.389Z,103291.44
2023-02-06T17:51:42.088Z,103298.72
2023-02-06T17:54:09.209Z,103300.63
2023-02-06T17:56:36.546Z,103306.13
2023-02-06T17:59:03.325Z,103298.31
2023-02-06T18:01:30.194Z,103305.53
2023-02-06T18:03:56.792Z,103305.72
2023-02-06T18:06:23.430Z,103307.56
2023-02-06T18:08:49.763Z,103296.19
2023-02-06T18:11:19.193Z,103304.25
2023-02-06T18:13:48.213Z,103298.16
2023-02-06T18:16:18.708Z,103305.34
2023-02-06T18:18:45.682Z,103308.25
2023-02-06T18:21:12.105Z,103300.44
2023-02-06T18:23:39.301Z,103303.19
2023-02-06T18:26:09.313Z,103305.97
2023-02-06T18:28:39.279Z,103306.09
2023-02-06T18:31:19.368Z,103311.53
2023-02-06T18:33:45.942Z,103304.56
2023-02-06T18:36:12.299Z,103300.25
2023-02-06T18:38:38.785Z,103304.84
2023-02-06T18:41:06.214Z,103298.78
2023-02-06T18:43:33.139Z,103303.31
2023-02-06T18:46:06.958Z,103297.28
2023-02-06T18:48:33.378Z,103290.34
2023-02-06T18:51:00.755Z,103290.50
2023-02-06T18:53:27.137Z,103300.41
2023-02-06T18:55:58.347Z,103290.84
2023-02-06T18:58:24.682Z,103292.78
2023-02-06T19:00:51.038Z,103292.06
2023-02-06T19:03:17.463Z,103292.16
2023-02-06T19:05:43.875Z,103302.13
2023-02-06T19:08:10.239Z,103293.44
2023-02-06T19:10:36.893Z,103295.25
2023-02-06T19:13:03.753Z,103299.81
2023-02-06T19:15:30.825Z,103301.66
2023-02-06T19:17:57.320Z,103300.81
2023-02-06T19:20:23.723Z,103307.06
2023-02-06T19:22:51.586Z,103319.50
2023-02-06T19:25:19.144Z,103304.50
2023-02-06T19:27:45.702Z,103301.91
2023-02-06T19:30:13.467Z,103316.13
2023-02-06T19:32:39.972Z,103319.72
2023-02-06T19:35:06.758Z,103314.50
2023-02-06T19:37:33.249Z,103320.81
2023-02-06T19:39:59.600Z,103318.28
2023-02-06T19:42:25.968Z,103328.06
2023-02-06T19:44:56.156Z,103327.22
2023-02-06T19:47:22.929Z,103333.56
2023-02-06T19:49:51.786Z,103331.88
2023-02-06T19:52:18.633Z,103332.00
2023-02-06T19:54:45.384Z,103330.41
2023-02-06T19:57:11.716Z,103342.09
2023-02-06T19:59:38.092Z,103340.50
2023-02-06T20:02:04.530Z,103337.97
2023-02-06T20:04:34.545Z,103342.53
2023-02-06T20:07:01.831Z,103329.47
2023-02-06T20:09:28.501Z,103340.16
2023-02-06T20:11:56.016Z,103345.53
2023-02-06T20:14:23.440Z,103345.69
2023-02-06T20:16:50.227Z,103350.19
2023-02-06T20:19:20.968Z,103351.22
2023-02-06T20:21:50.189Z,103348.66
2023-02-06T20:24:21.753Z,103354.06
2023-02-06T20:26:51.229Z,103352.47
2023-02-06T20:29:27.654Z,103356.09
2023-02-06T20:31:54.994Z,103349.19
2023-02-06T20:34:22.176Z,103355.47
2023-02-06T20:36:49.599Z,103352.88
2023-02-06T20:39:16.608Z,103357.34
2023-02-06T20:41:43.942Z,103364.44
2023-02-06T20:44:11.853Z,103354.69
2023-02-06T20:46:39.535Z,103353.75
2023-02-06T20:49:12.321Z,103352.88
2023-02-06T20:51:38.692Z,103354.59
2023-02-06T20:54:06.461Z,103354.50
2023-02-06T20:56:34.444Z,103356.28
2023-02-06T20:59:01.283Z,103349.16
2023-02-06T21:01:29.628Z,103352.59
2023-02-06T21:03:58.804Z,103353.44
2023-02-06T21:06:25.793Z,103357.84
2023-02-06T21:08:56.502Z,103361.38
2023-02-06T21:11:23.022Z,103365.75
2023-02-06T21:13:49.546Z,103365.75
2023-02-06T21:16:15.875Z,103363.09
2023-02-06T21:18:42.621Z,103369.31
2023-02-06T21:21:12.853Z,103368.50
2023-02-06T21:23:41.120Z,103377.47
2023-02-06T21:26:09.523Z,103379.38
2023-02-06T21:28:36.857Z,103370.69
2023-02-06T21:31:09.375Z,103369.09
2023-02-06T21:33:36.944Z,103376.28
2023-02-06T21:36:06.657Z,103379.94
2023-02-06T21:38:34.645Z,103375.63
2023-02-06T21:41:13.724Z,103380.06
2023-02-06T21:43:40.483Z,103381.88
2023-02-06T21:46:07.641Z,103371.31
2023-02-06T21:48:34.833Z,103380.16
2023-02-06T21:51:15.925Z,103383.66
2023-02-06T21:53:44.074Z,103378.34
2023-02-06T21:56:23.192Z,103384.50
2023-02-06T21:58:50.450Z,103370.41
2023-02-06T22:01:23.839Z,103374.78
2023-02-06T22:03:50.909Z,103371.31
2023-02-06T22:06:19.756Z,103374.84
2023-02-06T22:08:48.266Z,103371.34
2023-02-06T22:11:20.732Z,103371.38
2023-02-06T22:13:48.054Z,103370.56
2023-02-06T22:16:18.911Z,103363.50
2023-02-06T22:18:45.443Z,103361.81
2023-02-06T22:21:18.944Z,103360.09
2023-02-06T22:23:47.040Z,103370.75
2023-02-06T22:26:16.507Z,103369.91
2023-02-06T22:28:43.640Z,103362.91
2023-02-06T22:31:19.354Z,103374.44
2023-02-06T22:33:46.518Z,103371.81
2023-02-06T22:36:15.384Z,103366.59
2023-02-06T22:38:45.141Z,103371.03
2023-02-06T22:41:15.582Z,103373.72
2023-02-06T22:43:43.493Z,103381.72
2023-02-06T22:46:16.782Z,103373.78
2023-02-06T22:48:43.164Z,103376.50
2023-02-06T22:51:10.600Z,103373.00
2023-02-06T22:53:38.317Z,103380.13
2023-02-06T22:56:31.926Z,103385.47
2023-02-06T22:59:07.421Z,103383.72
2023-02-06T23:01:42.853Z,103382.00
2023-02-06T23:04:16.613Z,103379.41
2023-02-06T23:06:43.840Z,103380.28
2023-02-06T23:09:14.306Z,103380.38
2023-02-06T23:11:41.080Z,103384.81
2023-02-06T23:14:07.576Z,103385.75
2023-02-06T23:16:35.323Z,103383.16
2023-02-06T23:19:04.480Z,103384.06
2023-02-06T23:21:32.318Z,103376.19
2023-02-06T23:24:00.662Z,103386.78
2023-02-06T23:26:28.088Z,103395.66
2023-02-06T23:28:57.387Z,103386.84
2023-02-06T23:31:24.640Z,103378.97
2023-02-06T23:33:52.007Z,103377.22
2023-02-06T23:36:20.724Z,103375.56
2023-02-06T23:38:47.962Z,103392.31
2023-02-06T23:41:18.019Z,103392.38
2023-02-06T23:43:48.782Z,103394.16
2023-02-06T23:46:15.432Z,103375.75
2023-02-06T23:48:41.831Z,103396.03
2023-02-06T23:51:08.224Z,103401.41
2023-02-06T23:53:34.795Z,103397.91
2023-02-06T23:56:01.136Z,103385.56
2023-02-06T23:58:27.742Z,103372.41
